Headquarters, Valles Caldera, New Mexico Weather observations

Data are for 10 minute period ending at time listed.
 Day   Time   Solar   Ave.   Ave.  Ave.  Vector  Max.   Baro.   Total    
  of    of     Rad.   Air    Rel.  Wind   Wind   Wind  Press.  Precip.   
Year   Day            Temp.  Hum.  Speed  Dir.   Gust                    
2015   (MST)  Kw/m2    F      %     mph   deg.    mph    mb.     in.     
-------------------------------------------------------------------------
 212   13:20   0.60   62.0    76    4.2   120     7.8   749.4    0.00 
 212   13:30   0.38   62.7    74    1.6   155     4.8   749.2    0.00 
 212   13:40   0.43   62.8    75    3.6   116     7.2   749.2    0.00 
 212   13:50   0.44   62.6    77    4.7   106     7.8   749.2    0.00 
 212   14:00   0.69   63.3    75    6.4    97     9.0   749.2    0.00 
 212   14:10   0.66   63.7    72    5.2    80    10.2   749.2    0.00 
 212   14:20   0.41   63.3    71    3.4     6     5.4   749.0    0.00 
 212   14:30   0.68   64.3    70    2.9    80     5.4   748.8    0.00 
 212   14:40   0.73   65.3    69    4.0   114     7.2   748.6    0.00 
 212   14:50   0.75   66.5    65    3.5   131     6.0   748.5    0.00 
 212   15:00   0.67   67.5    65    2.6    46     6.0   748.5    0.00 
 212   15:10   0.81   68.1    63    4.0    25     6.6   748.4    0.00 
 212   15:20   0.54   68.6    63    4.9    64     7.8   748.3    0.00 
 212   15:30   0.33   67.2    65    5.0    59     9.0   748.2    0.00 
 212   15:40   0.18   65.5    66    5.1    74     7.8   748.2    0.00 
 212   15:50   0.24   65.5    68    3.3    85     6.0   748.0    0.00 
 212   16:00   0.26   66.4    65    3.3   169     5.4   747.9    0.00 
 212   16:10   0.14   66.3    62    4.1   274     9.0   748.1    0.00 
 212   16:20   0.16   64.6    61    5.8   319    10.2   748.2    0.00 
 212   16:30   0.13   63.8    63    4.0   327     7.8   748.2    0.00 
 212   16:40   0.12   63.8    65    2.8    40     4.2   748.1    0.00 
 212   16:50   0.09   63.5    67    3.2    65     5.4   748.2    0.00 
 212   17:00   0.04   62.4    73    4.3   157     9.6   748.4    0.00 
 212   17:10   0.04   61.0    76    5.2   177     9.0   748.4    0.00 
 212   17:20   0.04   60.5    77    3.5   208     6.0   748.3    0.00 
 212   17:30   0.03   60.2    80    2.4   321     3.6   748.2    0.00 
 212   17:40   0.02   59.8    81    2.3   307     3.6   748.1    0.00 
 212   17:50   0.01   58.9    85    4.0   220     5.4   748.2    0.00 
 212   18:00   0.01   58.1    86    3.1   199     5.4   748.1    0.00 
 212   18:10   0.00   58.1    85    2.4   128     3.6   748.1    0.00 
 212   18:20   0.00   57.9    83    1.7    83     4.2   748.1    0.00 
 212   18:30   0.00   57.6    85    1.9   302     3.6   748.1    0.00 
 212   18:40   0.01   57.2    87    3.4   309     4.8   748.2    0.01 
 212   18:50   0.01   57.0    88    2.8   290     3.6   748.3    0.00 
 212   19:00   0.00   56.6    90    3.2   216     4.8   748.4    0.00 
 212   19:10   0.00   56.1    91    3.6   249     4.2   748.4    0.00 
 212   19:20   0.00   56.1    92    2.2   296     5.4   748.4    0.00 
 212   19:30   0.00   56.0    91    2.2   246     3.0   748.4    0.01 
 212   19:40   0.00   55.6    92    3.1   223     4.8   748.4    0.00 
 212   19:50   0.00   55.0    92    3.6   249     4.8   748.4    0.00 
 212   20:00   0.00   54.8    92    2.9   248     4.8   748.5    0.00 
 212   20:10   0.00   54.4    92    3.6   251     4.8   748.5    0.00 
 212   20:20   0.00   53.6    92    3.8   239     4.8   748.6    0.00 
 212   20:30   0.00   53.1    92    2.9   269     4.2   748.7    0.00 
 212   20:40   0.00   52.9    92    3.6   247     4.8   748.8    0.00 
 212   20:50   0.00   52.7    92    3.8   251     4.8   748.8    0.00 
 212   21:00   0.00   52.6    92    2.5   264     4.2   748.8    0.00 
 212   21:10   0.00   52.2    92    1.5   231     3.6   748.9    0.00 
 212   21:20   0.00   52.1    93    2.8   256     4.2   749.1    0.00 
 212   21:30   0.00   51.8    93    2.8   270     4.2   749.1    0.00 
 212   21:40   0.00   51.9    93    2.7   261     3.6   749.2    0.00 
 212   21:50   0.00   51.8    93    2.7   250     3.6   749.2    0.00 
 212   22:00   0.00   52.1    94    1.5   267     3.0   749.2    0.00 
 212   22:10   0.00   52.1    94    1.9   269     2.4   749.2    0.00 
 212   22:20   0.00   52.3    94    2.5   229     4.2   749.2    0.00 
 212   22:30   0.00   52.3    94    3.2   229     4.2   749.2    0.00 
 212   22:40   0.00   52.6    94    2.6   280     4.2   749.0    0.00 
 212   22:50   0.00   52.6    93    2.8   223     4.2   749.0    0.00 
 212   23:00   0.00   52.6    93    3.7   227     6.0   749.0    0.00 
 212   23:10   0.00   53.2    94    4.3   289     7.2   748.9    0.00 
 212   23:20   0.00   53.8    92    2.5   242     5.4   748.8    0.00 
 212   23:30   0.00   53.7    90    2.1   270     3.6   748.8    0.00 
 212   23:40   0.00   53.3    91    1.6   271     2.4   748.8    0.00 
 212   23:50   0.00   52.8    91    2.7   217     4.8   748.9    0.00 
 213    0:00   0.00   52.6    92    2.3   278     4.2   748.9    0.00 
 213    0:10   0.00   52.8    92    3.7   242     4.8   748.8    0.00 
 213    0:20   0.00   52.4    92    3.9   251     5.4   748.8    0.00 
 213    0:30   0.00   52.4    92    2.7   272     4.2   748.7    0.00 
 213    0:40   0.00   52.4    92    1.4   264     2.4   748.7    0.00 
 213    0:50   0.00   52.2    92    0.5   213     1.8   748.7    0.00 
 213    1:00   0.00   51.9    92    2.1   243     3.0   748.7    0.00 
 213    1:10   0.00   52.0    93    3.2   247     3.6   748.6    0.00 
 213    1:20   0.00   52.2    93    1.9   280     3.6   748.5    0.00 
 213    1:30   0.00   52.2    93    2.0   200     3.6   748.5    0.00 
 213    1:40   0.00   52.3    92    1.3   336     3.0   748.4    0.00 
 213    1:50   0.00   52.5    92    2.0   352     3.6   748.3    0.00 
 213    2:00   0.00   52.8    92    1.7   248     3.6   748.2    0.00 
 213    2:10   0.00   52.7    92    3.5   217     4.8   748.2    0.00 
 213    2:20   0.00   52.3    92    2.5   243     3.6   748.2    0.00 
 213    2:30   0.00   52.3    93    1.9   226     3.0   748.2    0.00 
 213    2:40   0.00   52.4    93    2.1   294     3.0   748.2    0.00 
 213    2:50   0.00   52.6    93    1.8   252     3.0   748.2    0.00 
 213    3:00   0.00   52.5    92    1.6   247     2.4   748.2    0.00 
 213    3:10   0.00   52.5    93    0.9    22     3.0   748.1    0.00 
 213    3:20   0.00   52.6    93    2.1    58     4.2   748.2    0.00 
 213    3:30   0.00   52.5    93    2.2   324     4.2   748.0    0.00 
 213    3:40   0.00   52.5    93    2.1   126     4.2   747.9    0.00 
 213    3:50   0.00   52.2    92    0.9   336     2.4   747.8    0.00 
 213    4:00   100.00  99999.0   99999  99999.0   99999   99999.0   99999.0   99999.00 
 213    4:10   100.00  99999.0   99999  99999.0   99999   99999.0   99999.0   99999.00 
 213    4:20   0.00   50.9    93    2.1   218     4.2   747.8    0.00 
 213    4:30   0.00   50.3    93    2.0   267     3.0   747.8    0.00 
 213    4:40   0.00   49.9    94    2.8   310     4.2   747.7    0.00 
 213    4:50   0.00   49.9    94    1.4   326     3.0   747.8    0.00 
 213    5:00   0.00   50.0    94    2.2   291     3.6   747.9    0.00 
 213    5:10   0.00   49.9    94    1.3   237     3.6   747.9    0.00 
 213    5:20   0.00   50.6    94    0.6    27     2.4   747.9    0.00 
 213    5:30   0.00   51.1    94    0.1   269     1.2   748.0    0.00 
 213    5:40   0.01   51.1    94    1.2   238     3.0   748.1    0.00 
 213    5:50   0.01   51.4    94    1.0   254     3.0   748.1    0.00 
 213    6:00   0.02   51.5    94    2.1   232     3.6   748.1    0.00 
 213    6:10   0.04   51.8    94    1.9   266     3.0   748.1    0.00 
 213    6:20   0.04   52.3    94    0.4   134     2.4   748.1    0.00 
 213    6:30   0.05   52.4    94    1.9    68    36.1   748.2    0.00 
 213    6:40   0.06   52.5    94    0.6     2     2.4   748.2    0.00 
 213    6:50   0.08   53.0    94    0.9   162     3.0   748.2    0.00 
 213    7:00   0.09   53.5    94    0.6    89     1.8   748.2    0.04 
 213    7:10   0.11   54.3    94    0.7    62     1.8   748.2    0.00 
 213    7:20   0.12   55.3    92    1.2    60     3.0   748.2    0.00 
 213    7:30   0.14   55.9    89    2.8    75     3.6   748.2    0.00 
 213    7:40   0.17   56.2    89    1.9   106     3.6   748.2    0.00 
 213    7:50   0.30   58.1    86    1.0     7     3.0   748.2    0.00 
 213    8:00   0.55   62.2    75    1.5   293     4.2   748.2    0.00 
 213    8:10   0.56   64.5    69    3.9   191     7.2   748.2    0.00 
 213    8:20   0.51   63.5    68    4.1   170     7.2   748.2    0.00 
 213    8:30   0.51   63.8    66    4.1   164     6.6   748.1    0.00 
 213    8:40   0.53   65.8    60    4.0   190     9.0   748.0    0.00 
 213    8:50   0.56   65.5    61    8.4   194    13.7   748.0    0.00 
 213    9:00   0.60   65.4    63    9.1   196    13.7   747.9    0.00 
 213    9:10   0.62   66.2    62    8.8   200    14.3   747.9    0.00 
 213    9:20   0.55   65.9    63   10.3   199    14.3   747.9    0.00 
 213    9:30   0.59   65.9    63    9.6   198    14.9   747.9    0.00 
 213    9:40   0.70   66.9    61    7.6   196    12.5   747.8    0.00 
 213    9:50   0.74   67.9    59    6.5   189    10.8   747.8    0.00 
 213   10:00   0.88   68.1    57    5.0    99     8.4   747.7    0.00 
 213   10:10   0.56   68.8    58    4.4   137     8.4   747.6    0.00 
 213   10:20   0.53   68.1    57    8.1   207    11.3   747.5    0.00 
 213   10:30   0.82   68.5    56    7.2   211    12.5   747.5    0.00 
 213   10:40   0.96   70.8    56    8.4   197    11.9   747.5    0.00 
 213   10:50   0.84   69.6    57    6.5   186    13.1   747.4    0.00 
 213   11:00   0.76   70.1    56    7.8   206    11.3   747.3    0.00 
 213   11:10   0.60   69.7    56    6.9   201    11.9   747.2    0.00 
 213   11:20   0.99   70.6    56    8.6   197    13.1   747.1    0.00 
 213   11:30   1.07   71.5    52    7.5   200    14.9   746.9    0.00 
 213   11:40   0.53   70.9    53    9.4   199    14.3   746.8    0.00 
 213   11:50   0.44   69.1    56    9.5   208    14.9   746.7    0.00 
 213   12:00   0.19   67.3    56    8.7   247    16.1   746.8    0.00 
 213   12:10   0.22   62.0    74    6.8   248    13.7   746.9    0.06 
 213   12:20   0.28   61.0    81    4.0   214     5.4   746.8    0.01 
 213   12:30   0.34   62.3    83    3.1   188     4.8   746.7    0.00 
 213   12:40   0.27   62.9    81    3.6   164     5.4   746.7    0.00 
 213   12:50   0.19   63.2    79    3.6   173     5.4   746.6    0.00 
 213   13:00   0.12   62.9    79    4.5   159     7.8   746.7    0.00 
 213   13:10   0.06   61.4    80    5.9   133     9.0   746.8    0.00 

Return to Headquarters, Valles Caldera graphs page.


Western Regional Climate Center,wrcc@dri.edu